Time;durP1;ratioP1;P1;durP2;ratioP2;P2;SDS_P1;SDS_P2;PMS_P1;PMS_P2;Temp;Humidity;BMP_temperature;BMP_pressure;BME280_temperature;BME280_humidity;BME280_pressure;Samples;Min_cycle;Max_cycle;Signal;HPM_P1;HPM_P2
2022/08/23 00:01:23;;;;;;;7.38;3.22;;;;;;;26.50;64.45;98255.34;6038713;23;20197;-90
2022/08/23 00:03:49;;;;;;;4.67;3.00;;;;;;;26.50;64.34;98260.72;6040280;23;20580;-91
2022/08/23 00:06:16;;;;;;;5.97;3.05;;;;;;;26.36;64.85;98256.34;6039783;23;20181;-91
2022/08/23 00:08:41;;;;;;;7.03;2.90;;;;;;;26.30;65.72;98257.16;6040415;23;20252;-91
2022/08/23 00:11:24;;;;;;;5.33;2.83;;;;;;;26.17;66.14;98257.94;6039833;23;20170;-91
2022/08/23 00:13:50;;;;;;;6.03;3.30;;;;;;;26.13;66.85;98257.50;6038593;23;20150;-91
2022/08/23 00:16:15;;;;;;;4.53;2.83;;;;;;;26.16;66.65;98257.09;6038611;23;20177;-91
2022/08/23 00:18:41;;;;;;;7.27;3.43;;;;;;;26.22;65.92;98248.25;6038626;23;20157;-90
2022/08/23 00:21:06;;;;;;;6.22;3.42;;;;;;;26.19;66.32;98251.34;6038405;23;20168;-91
2022/08/23 00:23:32;;;;;;;7.83;3.10;;;;;;;26.13;66.81;98252.13;6038660;23;20173;-89
2022/08/23 00:26:01;;;;;;;7.60;3.53;;;;;;;26.11;66.92;98254.16;6040033;23;20173;-90
2022/08/23 00:28:27;;;;;;;6.20;3.53;;;;;;;26.07;67.06;98244.81;6038663;23;20165;-91
2022/08/23 00:30:52;;;;;;;7.28;3.58;;;;;;;26.02;67.27;98247.28;6038640;23;20157;-91
2022/08/23 00:33:18;;;;;;;6.77;3.30;;;;;;;25.91;67.77;98245.19;6038642;23;20158;-91
2022/08/23 00:35:43;;;;;;;7.73;4.00;;;;;;;25.75;68.73;98242.84;6041862;23;20154;-90
2022/08/23 00:38:09;;;;;;;5.40;3.40;;;;;;;25.74;69.02;98238.47;6040901;23;20635;-91
2022/08/23 00:40:34;;;;;;;5.47;3.50;;;;;;;25.76;68.70;98232.94;6041998;23;20185;-91
2022/08/23 00:49:03;;;;;;;6.13;3.30;;;;;;;25.95;67.35;98230.31;6042484;23;20149;-92
2022/08/23 00:51:58;;;;;;;5.40;3.03;;;;;;;25.94;67.63;98236.72;6041708;23;20582;-91
2022/08/23 00:54:27;;;;;;;5.17;2.77;;;;;;;25.90;67.50;98248.06;6033351;23;20200;-92
2022/08/23 00:56:54;;;;;;;9.93;4.20;;;;;;;25.71;69.04;98254.97;6041461;23;20150;-91
2022/08/23 00:59:21;;;;;;;7.47;3.57;;;;;;;25.75;68.90;98255.41;6041811;23;20224;-91
2022/08/23 01:01:47;;;;;;;5.30;3.03;;;;;;;25.60;69.63;98258.22;6042062;23;20178;-91
2022/08/23 01:04:13;;;;;;;7.73;3.67;;;;;;;25.58;70.05;98266.47;6040394;23;20313;-90
2022/08/23 01:07:11;;;;;;;6.30;3.07;;;;;;;25.49;70.42;98261.47;6040321;23;20214;-90
2022/08/23 01:09:40;;;;;;;6.47;3.80;;;;;;;25.65;69.86;98271.88;6008965;23;20162;-91
2022/08/23 01:12:22;;;;;;;5.80;3.33;;;;;;;25.54;70.29;98272.44;6041300;23;20160;-91
2022/08/23 01:14:58;;;;;;;6.63;3.47;;;;;;;25.37;71.13;98277.22;6040235;23;20150;-90
2022/08/23 01:17:34;;;;;;;9.23;4.07;;;;;;;25.33;71.24;98272.44;6040034;23;20169;-91
2022/08/23 01:20:05;;;;;;;9.47;4.87;;;;;;;25.25;71.48;98275.28;6040214;23;20526;-91
2022/08/23 01:22:37;;;;;;;7.93;4.47;;;;;;;25.46;70.26;98277.94;6040200;23;20254;-91
2022/08/23 01:25:05;;;;;;;8.60;4.60;;;;;;;25.52;69.82;98261.06;6040510;23;20170;-92
2022/08/23 01:27:31;;;;;;;9.83;5.03;;;;;;;25.56;69.83;98265.00;6040221;23;20157;-94
2022/08/23 01:29:56;;;;;;;9.67;5.20;;;;;;;25.57;69.29;98264.00;6040287;23;20158;-91
2022/08/23 01:32:22;;;;;;;8.43;5.23;;;;;;;25.54;69.51;98267.91;6040232;23;20157;-91
2022/08/23 01:34:48;;;;;;;10.30;5.57;;;;;;;25.46;69.57;98270.72;6040267;23;20184;-92
2022/08/23 01:37:13;;;;;;;11.80;5.50;;;;;;;25.51;69.65;98278.19;6041233;23;20149;-92
2022/08/23 01:39:39;;;;;;;12.67;5.73;;;;;;;25.57;69.12;98264.00;6041326;23;20161;-91
2022/08/23 01:42:06;;;;;;;12.73;5.33;;;;;;;25.52;69.63;98261.88;6040247;23;20189;-91
2022/08/23 01:44:33;;;;;;;9.53;5.07;;;;;;;25.32;70.12;98270.78;6040233;23;20154;-93
2022/08/23 01:46:58;;;;;;;11.33;5.53;;;;;;;25.36;70.26;98272.06;6039637;23;20168;-91
2022/08/23 01:49:24;;;;;;;10.70;6.03;;;;;;;25.41;69.90;98270.44;6041030;23;20146;-91
2022/08/23 01:51:49;;;;;;;15.50;6.60;;;;;;;25.44;69.37;98271.91;6040982;23;20216;-91
2022/08/23 01:54:15;;;;;;;16.13;7.20;;;;;;;25.35;70.06;98273.91;6039950;23;20545;-91
2022/08/23 01:56:41;;;;;;;11.47;6.53;;;;;;;25.23;70.22;98277.31;6039931;23;20166;-91
2022/08/23 01:59:09;;;;;;;13.37;6.60;;;;;;;25.11;70.56;98270.81;6039929;23;20229;-91
2022/08/23 02:01:35;;;;;;;11.77;6.77;;;;;;;25.00;71.04;98262.25;6041268;23;20185;-91
2022/08/23 02:04:01;;;;;;;10.37;6.40;;;;;;;24.84;71.81;98270.56;6040086;23;20154;-91
2022/08/23 02:06:26;;;;;;;11.23;6.90;;;;;;;;;;6039749;23;20154;-91
2022/08/23 02:09:01;;;;;;;11.70;6.50;;;;;;;25.00;70.80;98273.00;6039613;23;20237;-91
2022/08/23 02:11:33;;;;;;;15.27;7.23;;;;;;;25.01;71.04;98277.34;6039748;23;20494;-91
2022/08/23 02:14:01;;;;;;;12.17;6.83;;;;;;;25.03;70.79;98279.81;6039804;23;20146;-90
2022/08/23 02:16:32;;;;;;;12.20;7.40;;;;;;;25.06;70.56;98279.44;6040789;23;20176;-91
2022/08/23 02:18:58;;;;;;;15.40;7.67;;;;;;;25.11;70.31;98284.22;6040743;23;20134;-91
2022/08/23 02:21:24;;;;;;;14.00;7.07;;;;;;;24.89;71.54;98288.78;6039366;23;20200;-90
2022/08/23 02:23:53;;;;;;;14.67;7.83;;;;;;;25.05;70.95;98280.47;6040563;23;20150;-90
2022/08/23 02:26:18;;;;;;;24.13;10.00;;;;;;;25.11;70.89;98284.22;6039548;23;20157;-90
2022/08/23 02:28:44;;;;;;;11.73;7.70;;;;;;;24.80;71.39;98287.22;6040547;23;20154;-91
2022/08/23 02:31:10;;;;;;;15.97;7.97;;;;;;;24.76;71.95;98276.06;6039476;23;20164;-91
2022/08/23 02:33:36;;;;;;;13.87;7.63;;;;;;;24.69;72.37;98285.84;6040472;23;20160;-91
2022/08/23 02:36:01;;;;;;;14.83;7.87;;;;;;;24.67;71.92;98285.22;6039353;23;20158;-90
2022/08/23 02:38:27;;;;;;;10.90;6.53;;;;;;;24.60;72.74;98292.38;6040363;23;20190;-90
2022/08/23 02:40:53;;;;;;;11.93;7.00;;;;;;;24.48;73.09;98293.88;6040451;23;20150;-92
2022/08/23 02:43:18;;;;;;;18.50;7.43;;;;;;;24.41;73.48;98291.13;6040814;23;20683;-91
2022/08/23 02:45:44;;;;;;;14.07;7.30;;;;;;;24.49;73.37;98294.69;6040360;23;20212;-90
2022/08/23 02:48:10;;;;;;;15.63;6.97;;;;;;;24.37;74.13;98303.22;6040862;23;20165;-90
2022/08/23 02:50:35;;;;;;;11.57;7.10;;;;;;;24.29;74.68;98302.50;6040551;23;20212;-90
2022/08/23 02:53:01;;;;;;;13.57;6.73;;;;;;;24.25;75.18;98301.22;6040525;23;20146;-90
2022/08/23 02:55:26;;;;;;;16.03;7.10;;;;;;;24.22;75.75;98301.56;6040678;23;20154;-92
2022/08/23 02:57:52;;;;;;;17.73;8.30;;;;;;;23.96;77.96;98315.41;6039344;23;20158;-91
2022/08/23 03:00:18;;;;;;;11.17;7.07;;;;;;;23.99;77.83;98315.06;6039272;23;20154;-92
2022/08/23 03:02:44;;;;;;;13.57;8.07;;;;;;;23.94;78.95;98324.66;6039368;23;20196;-90
2022/08/23 03:05:12;;;;;;;10.90;6.27;;;;;;;24.03;78.69;98315.53;6040428;23;20154;-91
2022/08/23 03:07:38;;;;;;;14.47;7.80;;;;;;;24.14;77.88;98320.41;6039233;23;20154;-91
2022/08/23 03:10:05;;;;;;;13.00;7.60;;;;;;;24.11;77.89;98318.16;6039164;23;20229;-91
2022/08/23 03:12:31;;;;;;;11.80;5.77;;;;;;;24.21;76.88;98310.66;6039415;23;20571;-92
2022/08/23 03:14:57;;;;;;;12.77;6.93;;;;;;;24.36;76.69;98322.16;6040292;23;20157;-91
2022/08/23 03:17:22;;;;;;;18.73;8.10;;;;;;;24.39;75.90;98319.13;6039150;23;20173;-92
2022/08/23 03:19:48;;;;;;;15.10;7.90;;;;;;;24.48;75.95;98325.19;6040241;23;20150;-91
2022/08/23 03:22:14;;;;;;;12.47;6.40;;;;;;;24.42;75.84;98332.13;6039967;23;20177;-90
2022/08/23 03:24:39;;;;;;;12.37;6.67;;;;;;;24.40;76.42;98326.13;6038988;23;20162;-90
2022/08/23 03:27:05;;;;;;;13.53;6.03;;;;;;;24.54;75.14;98340.50;6040477;23;20157;-90
2022/08/23 03:29:32;;;;;;;10.40;6.00;;;;;;;24.59;75.02;98338.09;6039124;23;20223;-91
2022/08/23 03:31:59;;;;;;;12.23;7.23;;;;;;;24.60;75.02;98339.75;6038988;23;20154;-90
2022/08/23 03:34:24;;;;;;;17.17;8.30;;;;;;;24.67;74.95;98344.19;6040121;23;20495;-91
2022/08/23 03:36:50;;;;;;;13.60;7.33;;;;;;;24.53;75.35;98345.03;6038912;23;20158;-91
2022/08/23 03:39:15;;;;;;;9.83;6.33;;;;;;;24.54;75.68;98345.88;6062786;23;20593;-91
2022/08/23 03:41:41;;;;;;;11.70;6.80;;;;;;;24.55;75.29;98352.91;6038773;23;20261;-92
2022/08/23 03:44:07;;;;;;;11.73;7.07;;;;;;;24.52;75.90;98356.78;6039303;23;20154;-91
2022/08/23 03:46:33;;;;;;;12.70;6.57;;;;;;;24.56;75.58;98350.03;6040147;23;20575;-90
2022/08/23 03:49:00;;;;;;;10.40;6.30;;;;;;;24.73;74.52;98350.63;6039922;23;20164;-92
2022/08/23 03:51:28;;;;;;;10.93;6.33;;;;;;;24.91;73.64;98354.59;6038821;23;20157;-91
2022/08/23 03:53:53;;;;;;;12.77;6.10;;;;;;;24.69;74.93;98360.91;6040017;23;20165;-92
2022/08/23 03:56:25;;;;;;;15.83;6.27;;;;;;;24.60;75.15;98362.03;6039862;23;20486;-91
2022/08/23 03:58:50;;;;;;;12.83;6.40;;;;;;;24.62;75.39;98368.03;6039933;23;20150;-91
2022/08/23 04:01:16;;;;;;;10.17;5.87;;;;;;;24.67;74.74;98364.78;6039761;23;20156;-91
2022/08/23 04:03:42;;;;;;;16.60;6.50;;;;;;;24.58;74.97;98372.09;6038850;23;20176;-92
2022/08/23 04:06:08;;;;;;;11.97;5.70;;;;;;;24.28;76.40;98365.97;6038900;23;20590;-91
2022/08/23 04:08:34;;;;;;;10.40;5.80;;;;;;;24.27;77.01;98372.31;6039994;23;20158;-90
2022/08/23 04:11:01;;;;;;;13.40;6.70;;;;;;;24.46;75.45;98370.91;6038707;23;20162;-90
2022/08/23 04:13:28;;;;;;;11.70;6.07;;;;;;;24.38;76.02;98379.91;6038939;23;20553;-92
2022/08/23 04:15:55;;;;;;;12.13;6.57;;;;;;;24.38;76.48;98384.41;6038538;23;20209;-90
2022/08/23 04:18:21;;;;;;;15.73;5.23;;;;;;;24.34;76.27;98383.13;6039928;23;20260;-92
2022/08/23 04:20:48;;;;;;;9.67;6.07;;;;;;;24.27;76.76;98371.47;6038782;23;20161;-90
2022/08/23 04:23:13;;;;;;;9.63;5.27;;;;;;;24.33;76.81;98379.63;6038613;23;20189;-91
2022/08/23 04:25:39;;;;;;;13.97;6.10;;;;;;;24.29;76.62;98369.47;6039264;23;20154;-91
2022/08/23 04:28:04;;;;;;;11.23;5.83;;;;;;;24.39;76.74;98372.69;6038706;23;20234;-90
2022/08/23 04:30:31;;;;;;;8.60;4.73;;;;;;;24.31;76.77;98376.31;6039694;23;20237;-90
2022/08/23 04:32:57;;;;;;;9.90;6.10;;;;;;;24.38;76.59;98379.91;6038571;23;20161;-91
2022/08/23 04:35:24;;;;;;;9.27;5.20;;;;;;;24.51;76.28;98378.38;6039546;23;20162;-91
2022/08/23 04:37:50;;;;;;;8.67;4.70;;;;;;;24.53;76.04;98379.88;6038542;23;20289;-91
2022/08/23 04:43:01;;;;;;;13.77;4.63;;;;;;;24.61;75.16;98385.13;6040085;23;20636;-91
2022/08/23 04:45:27;;;;;;;6.57;3.90;;;;;;;24.70;75.18;98388.53;6038468;23;20217;-90
2022/08/23 04:47:53;;;;;;;8.23;4.40;;;;;;;24.73;74.19;98389.00;6039633;23;20154;-91
2022/08/23 04:50:20;;;;;;;10.80;4.87;;;;;;;24.94;73.36;98394.44;6039702;23;20150;-90
2022/08/23 04:52:46;;;;;;;8.83;4.90;;;;;;;24.97;73.43;98390.53;6039563;23;20226;-92
2022/08/23 04:55:12;;;;;;;9.93;5.70;;;;;;;25.10;72.70;98388.00;6039689;23;20162;-90
2022/08/23 04:57:37;;;;;;;7.87;4.50;;;;;;;25.23;72.23;98392.66;6039603;23;20154;-91
2022/08/23 05:00:05;;;;;;;8.23;4.60;;;;;;;25.17;72.10;98396.09;6039615;23;20606;-91
2022/08/23 05:02:31;;;;;;;9.40;5.23;;;;;;;25.29;71.77;98397.28;6038359;23;20208;-91
2022/08/23 05:04:56;;;;;;;8.23;4.10;;;;;;;25.33;71.24;98391.31;6039877;23;20638;-91
2022/08/23 05:07:22;;;;;;;7.37;3.90;;;;;;;25.41;70.76;98393.03;6039493;23;20213;-90
2022/08/23 05:09:47;;;;;;;8.77;4.17;;;;;;;25.53;70.55;98386.16;6038369;23;20181;-90
2022/08/23 05:12:13;;;;;;;10.07;4.83;;;;;;;25.43;70.48;98396.34;6038744;23;20146;-90
2022/08/23 05:14:38;;;;;;;10.50;4.90;;;;;;;25.35;71.07;98400.00;6038675;23;20154;-90
2022/08/23 05:17:04;;;;;;;6.83;3.80;;;;;;;25.57;70.59;98399.03;6039225;23;20201;-90
2022/08/23 05:19:29;;;;;;;9.70;4.00;;;;;;;25.54;70.22;98403.94;6038344;23;20157;-90
2022/08/23 05:21:55;;;;;;;6.63;3.83;;;;;;;25.71;69.88;98412.56;6039466;23;20607;-90
2022/08/23 05:24:20;;;;;;;7.93;3.57;;;;;;;25.91;69.20;98417.06;6041228;23;20478;-91
2022/08/23 05:26:46;;;;;;;6.53;4.03;;;;;;;26.07;67.75;98411.34;6041282;23;20217;-90
2022/08/23 05:29:11;;;;;;;6.70;3.67;;;;;;;25.99;68.33;98413.38;6041458;23;20479;-91
2022/08/23 05:31:37;;;;;;;5.73;3.10;;;;;;;26.09;68.07;98412.00;6041141;23;20456;-91
2022/08/23 05:34:04;;;;;;;5.50;3.23;;;;;;;25.97;67.73;98410.88;6039977;23;20164;-90
2022/08/23 05:36:29;;;;;;;6.70;3.50;;;;;;;26.13;67.77;98416.00;6040987;23;20177;-90
2022/08/23 05:38:55;;;;;;;6.30;3.50;;;;;;;26.21;67.58;98407.78;6041389;23;20570;-90
2022/08/23 05:41:20;;;;;;;6.93;3.45;;;;;;;26.28;66.78;98415.06;6040935;23;20154;-90
2022/08/23 05:43:46;;;;;;;8.88;4.00;;;;;;;26.30;67.05;98407.63;6041250;23;20520;-90
2022/08/23 05:46:16;;;;;;;7.93;3.60;;;;;;;26.47;66.57;98409.78;6041025;23;20204;-90
2022/08/23 05:48:45;;;;;;;6.23;3.50;;;;;;;26.61;66.06;98411.50;6040955;23;20158;-91
2022/08/23 05:51:11;;;;;;;9.77;3.45;;;;;;;26.72;64.95;98405.56;6040905;23;20150;-90
2022/08/23 05:53:37;;;;;;;5.72;3.58;;;;;;;26.86;64.38;98406.47;6039748;23;20252;-90
2022/08/23 05:56:19;;;;;;;5.38;3.13;;;;;;;27.11;63.97;98404.91;6039741;23;20245;-91
2022/08/23 05:58:45;;;;;;;4.25;2.50;;;;;;;27.26;62.32;98404.72;6041182;23;20157;-91
2022/08/23 06:01:13;;;;;;;6.45;2.80;;;;;;;27.43;61.32;98409.56;6040059;23;20204;-90
2022/08/23 06:03:39;;;;;;;5.25;3.03;;;;;;;27.47;60.85;98398.34;6039885;23;20224;-90
2022/08/23 06:06:05;;;;;;;6.22;3.17;;;;;;;27.54;60.52;98399.22;6040868;23;20154;-91
2022/08/23 06:08:33;;;;;;;5.53;2.83;;;;;;;27.56;60.57;98403.34;6040903;23;20484;-91
2022/08/23 06:11:23;;;;;;;9.95;3.13;;;;;;;27.49;61.00;98399.81;6039721;23;20166;-90
2022/08/23 06:13:53;;;;;;;5.22;3.05;;;;;;;27.59;60.48;98404.81;6030703;23;20597;-91
2022/08/23 06:16:23;;;;;;;8.10;3.38;;;;;;;27.68;60.33;98400.84;6039855;23;20180;-90
2022/08/23 06:18:49;;;;;;;6.05;3.22;;;;;;;27.70;60.19;98401.50;6041163;23;20154;-90
2022/08/23 06:21:15;;;;;;;6.28;2.92;;;;;;;27.83;59.61;98414.97;6039361;23;20153;-90
2022/08/23 06:23:41;;;;;;;8.18;3.78;;;;;;;27.82;59.49;98419.53;6040657;23;20150;-91
2022/08/23 06:26:17;;;;;;;7.78;3.10;;;;;;;27.87;60.05;98413.50;6039561;23;20158;-92
2022/08/23 06:28:44;;;;;;;5.53;3.13;;;;;;;28.09;59.08;98427.63;6039464;23;20154;-91
2022/08/23 06:31:10;;;;;;;6.07;2.90;;;;;;;28.18;59.19;98426.34;6040595;23;20149;-90
2022/08/23 06:33:36;;;;;;;9.02;3.15;;;;;;;28.26;58.11;98440.44;6040879;23;20164;-91
2022/08/23 06:36:08;;;;;;;6.40;3.42;;;;;;;28.45;57.82;98442.28;6039653;23;20244;-92
2022/08/23 06:38:34;;;;;;;6.47;2.75;;;;;;;28.59;57.00;98449.28;6039481;23;20158;-91
2022/08/23 06:41:09;;;;;;;6.13;2.50;;;;;;;28.65;57.15;98442.25;6040762;23;20228;-92
2022/08/23 06:43:36;;;;;;;4.95;2.85;;;;;;;28.75;56.93;98436.44;6040689;23;20145;-91
2022/08/23 06:46:16;;;;;;;5.45;3.13;;;;;;;28.78;56.88;98450.28;6040606;23;20225;-92
2022/08/23 06:48:43;;;;;;;6.00;3.10;;;;;;;28.88;55.93;98447.16;6039548;23;20524;-91
2022/08/23 06:51:14;;;;;;;5.60;2.85;;;;;;;28.98;55.72;98442.13;6039379;23;20185;-92
2022/08/23 06:53:39;;;;;;;9.80;3.15;;;;;;;28.98;55.22;98447.53;6039486;23;20166;-91
2022/08/23 06:56:05;;;;;;;6.07;2.92;;;;;;;28.95;55.25;98458.75;6040479;23;20154;-92
2022/08/23 06:58:31;;;;;;;4.80;2.90;;;;;;;29.06;55.74;98452.69;6039364;23;20241;-91
2022/08/23 07:01:10;;;;;;;5.32;3.13;;;;;;;29.04;55.44;98458.28;6039387;23;20181;-91
2022/08/23 07:03:35;;;;;;;5.47;2.85;;;;;;;29.13;55.41;98459.72;6040798;23;20476;-91
2022/08/23 07:06:01;;;;;;;5.30;3.13;;;;;;;29.06;54.90;98467.00;6040453;23;20224;-92
2022/08/23 07:08:27;;;;;;;6.05;2.92;;;;;;;29.11;54.50;98474.47;6040459;23;20153;-91
2022/08/23 07:10:55;;;;;;;7.30;3.72;;;;;;;29.03;55.07;98470.16;6040384;23;20578;-91
2022/08/23 07:13:21;;;;;;;7.20;3.13;;;;;;;29.16;55.03;98471.94;6039245;23;20297;-92
2022/08/23 07:15:47;;;;;;;6.18;3.33;;;;;;;29.27;55.03;98484.81;6039465;23;20157;-92
2022/08/23 07:18:13;;;;;;;7.82;3.35;;;;;;;29.26;54.51;98491.25;6040747;23;20145;-92
2022/08/23 07:20:38;;;;;;;6.60;2.65;;;;;;;29.30;53.37;98488.94;6039333;23;20161;-93
2022/08/23 07:23:04;;;;;;;5.32;3.00;;;;;;;29.32;53.09;98492.25;6039130;23;20682;-92
2022/08/23 07:25:31;;;;;;;6.40;2.90;;;;;;;29.42;54.30;98485.34;6040252;23;20536;-91
2022/08/23 07:27:56;;;;;;;5.38;3.30;;;;;;;29.44;53.53;98490.50;6040497;23;20220;-92
2022/08/23 07:30:22;;;;;;;5.18;3.28;;;;;;;29.55;53.17;98485.25;6040383;23;20225;-91
2022/08/23 07:32:48;;;;;;;8.90;4.22;;;;;;;29.85;52.79;98482.78;6040377;23;20157;-90
2022/08/23 07:35:13;;;;;;;7.35;4.15;;;;;;;30.17;53.16;98481.72;6040754;23;20161;-91
2022/08/23 07:37:38;;;;;;;8.45;4.38;;;;;;;30.38;51.09;98473.22;6041002;23;20153;-91
2022/08/23 07:40:07;;;;;;;11.88;4.65;;;;;;;30.51;51.87;98472.25;6038872;23;20172;-91
2022/08/23 07:42:34;;;;;;;12.82;5.88;;;;;;;30.50;51.00;98475.19;6039278;23;20181;-92
2022/08/23 07:45:01;;;;;;;12.48;6.15;;;;;;;30.51;51.63;98471.44;6038593;23;20153;-90
2022/08/23 07:47:28;;;;;;;10.43;5.00;;;;;;;30.81;51.27;98466.94;6040659;23;20150;-92
2022/08/23 07:49:54;;;;;;;10.65;6.15;;;;;;;30.96;50.69;98465.53;6040182;23;20158;-91
2022/08/23 07:52:19;;;;;;;9.57;4.80;;;;;;;31.30;50.97;98465.94;6038879;23;20601;-91
2022/08/23 07:54:45;;;;;;;11.48;5.70;;;;;;;31.47;48.71;98467.00;6039858;23;20155;-91
2022/08/23 07:57:11;;;;;;;18.38;7.22;;;;;;;31.68;47.73;98474.59;6039899;23;20180;-90
2022/08/23 07:59:36;;;;;;;14.93;7.78;;;;;;;31.82;47.90;98457.06;6040337;23;20474;-92
2022/08/23 08:02:02;;;;;;;10.40;5.25;;;;;;;32.03;46.58;98458.41;6040470;23;20185;-91
2022/08/23 08:04:28;;;;;;;11.23;5.03;;;;;;;32.17;45.79;98463.41;6038805;23;20158;-90
2022/08/23 08:06:53;;;;;;;12.07;5.85;;;;;;;32.19;46.13;98474.84;6038738;23;20162;-92
2022/08/23 08:09:19;;;;;;;13.77;6.85;;;;;;;32.40;45.96;98472.59;6040381;23;20528;-92
2022/08/23 08:11:46;;;;;;;17.20;8.20;;;;;;;32.55;45.39;98473.78;6038691;23;20153;-91
2022/08/23 08:14:12;;;;;;;14.70;6.97;;;;;;;32.54;44.58;98469.44;6038659;23;20630;-91
2022/08/23 08:16:44;;;;;;;13.32;6.28;;;;;;;32.66;45.05;98462.13;6062753;23;20241;-91
2022/08/23 08:19:16;;;;;;;14.65;5.78;;;;;;;32.71;44.19;98464.09;6038903;23;20178;-91
2022/08/23 08:21:44;;;;;;;16.42;7.47;;;;;;;32.90;44.01;98462.91;6040072;23;20249;-91
2022/08/23 08:24:13;;;;;;;17.63;7.82;;;;;;;32.94;44.66;98458.63;6038638;23;20253;-91
2022/08/23 08:26:40;;;;;;;12.90;6.70;;;;;;;33.03;44.20;98472.66;6039870;23;20157;-92
2022/08/23 08:29:10;;;;;;;15.55;6.38;;;;;;;33.17;43.69;98464.03;6039938;23;20154;-91
2022/08/23 08:31:38;;;;;;;12.80;5.75;;;;;;;33.38;42.68;98465.25;6039735;23;20583;-92
2022/08/23 08:34:04;;;;;;;14.80;7.60;;;;;;;33.24;43.43;98470.16;6040120;23;20161;-92
2022/08/23 08:36:31;;;;;;;12.43;6.25;;;;;;;33.24;43.23;98467.44;6039380;23;20256;-93
2022/08/23 08:38:57;;;;;;;12.27;6.60;;;;;;;32.83;43.79;98473.06;6039248;23;20165;-92
2022/08/23 08:41:39;;;;;;;11.75;6.70;;;;;;;33.10;44.50;98476.91;6039043;23;20157;-92
2022/08/23 08:44:45;;;;;;;14.30;7.00;;;;;;;32.72;44.41;98476.63;6039663;23;20154;-93
2022/08/23 08:47:39;;;;;;;13.68;6.00;;;;;;;33.09;42.89;98471.72;6039020;23;20157;-92
2022/08/23 08:50:04;;;;;;;11.02;5.82;;;;;;;33.20;43.20;98468.97;6028787;23;20158;-92
2022/08/23 08:53:12;;;;;;;11.35;6.00;;;;;;;33.31;42.51;98472.72;6039784;23;20146;-93
2022/08/23 08:55:43;;;;;;;12.70;6.45;;;;;;;33.27;42.51;98475.09;5998887;23;20158;-92
2022/08/23 08:58:16;;;;;;;15.07;7.35;;;;;;;33.05;42.48;98479.53;6040730;23;20150;-94
2022/08/23 09:00:42;;;;;;;13.07;6.88;;;;;;;32.99;43.07;98477.75;6040469;23;20188;-92
2022/08/23 09:03:19;;;;;;;15.00;7.13;;;;;;;33.27;42.62;98471.56;6040945;23;20185;-93
2022/08/23 09:06:14;;;;;;;15.50;7.13;;;;;;;33.49;42.40;98488.00;6041969;23;20145;-93
2022/08/23 09:09:01;;;;;;;13.13;6.32;;;;;;;33.53;41.86;98484.56;6040527;23;20186;-92
2022/08/23 09:11:36;;;;;;;12.70;7.00;;;;;;;33.51;42.40;98483.16;6040641;23;20165;-91
2022/08/23 09:14:18;;;;;;;13.30;7.07;;;;;;;33.55;41.66;98479.69;6042150;23;20631;-91
2022/08/23 09:17:14;;;;;;;13.07;7.25;;;;;;;33.70;40.93;98485.44;6040455;23;20201;-91
2022/08/23 09:19:40;;;;;;;11.50;6.85;;;;;;;33.63;41.34;98479.34;6040413;23;20157;-92
2022/08/23 09:22:15;;;;;;;13.85;8.32;;;;;;;33.60;40.49;98473.56;6041515;23;20186;-94
2022/08/23 09:24:40;;;;;;;11.30;7.13;;;;;;;33.99;40.43;98470.72;6040541;23;20157;-93
2022/08/23 09:27:08;;;;;;;12.48;7.63;;;;;;;34.18;39.96;98471.34;6040108;23;20168;-92
2022/08/23 09:29:36;;;;;;;14.15;8.07;;;;;;;34.34;38.98;98465.06;6041970;23;20206;-91
2022/08/23 09:32:25;;;;;;;11.68;7.35;;;;;;;34.51;39.44;98460.41;6040095;23;20233;-92
2022/08/23 09:34:50;;;;;;;13.95;7.68;;;;;;;34.89;39.10;98458.78;6040367;23;20154;-93
2022/08/23 09:37:24;;;;;;;12.60;7.68;;;;;;;34.84;38.31;98453.25;6040083;23;20161;-94
2022/08/23 09:40:09;;;;;;;12.10;7.32;;;;;;;35.06;37.46;98456.84;6040186;23;20153;-93
2022/08/23 09:42:38;;;;;;;11.63;7.05;;;;;;;35.25;37.11;98458.16;6040098;23;20273;-91
2022/08/23 09:45:22;;;;;;;11.88;7.20;;;;;;;35.28;37.31;98448.63;6040052;23;20161;-92
2022/08/23 09:47:48;;;;;;;11.23;6.90;;;;;;;35.39;37.53;98448.50;6040199;23;20154;-91
2022/08/23 09:50:24;;;;;;;11.20;7.22;;;;;;;35.68;35.96;98447.19;6041561;23;20555;-92
2022/08/23 09:52:56;;;;;;;10.50;7.22;;;;;;;35.68;35.19;98454.56;6040205;23;20141;-93
2022/08/23 09:55:30;;;;;;;15.35;7.50;;;;;;;35.80;35.84;98451.66;6041411;23;20158;-92
2022/08/23 09:57:58;;;;;;;12.85;6.68;;;;;;;35.88;35.46;98449.28;6039930;23;20220;-92
2022/08/23 10:00:29;;;;;;;13.23;7.60;;;;;;;35.91;36.04;98454.22;6041545;23;20507;-92
2022/08/23 10:03:21;;;;;;;11.50;8.32;;;;;;;36.09;34.77;98447.56;6039876;23;20493;-90
2022/08/23 10:05:54;;;;;;;11.05;6.95;;;;;;;36.18;35.40;98443.28;6038355;23;20173;-91
2022/08/23 10:08:31;;;;;;;12.85;6.13;;;;;;;36.22;35.58;98444.38;6038112;23;20249;-91
2022/08/23 10:11:18;;;;;;;10.65;6.68;;;;;;;35.88;34.37;98443.00;6039566;23;20524;-91
2022/08/23 10:13:44;;;;;;;9.70;6.60;;;;;;;35.52;34.87;98453.56;6038676;23;20168;-91
2022/08/23 10:16:47;;;;;;;9.68;6.25;;;;;;;35.74;35.73;98454.34;6039804;23;20170;-91
2022/08/23 10:19:24;;;;;;;8.48;5.72;;;;;;;36.14;34.91;98442.16;6039485;23;20163;-92
2022/08/23 10:22:19;;;;;;;9.60;6.40;;;;;;;36.31;34.20;98443.66;6039505;23;20581;-93
2022/08/23 10:25:11;;;;;;;;;;;;;;;;;;;;;
2022/08/23 10:30:44;;;;;;;8.70;5.82;;;;;;;36.01;35.20;98435.22;6041274;23;20153;-92
2022/08/23 10:33:25;;;;;;;12.15;6.60;;;;;;;35.51;35.47;98435.53;6041257;23;20166;-91
2022/08/23 10:36:21;;;;;;;10.07;6.60;;;;;;;35.73;35.51;98436.34;6039477;23;20154;-92
2022/08/23 10:39:00;;;;;;;13.40;6.90;;;;;;;35.95;35.13;98430.81;6039373;23;20554;-92
2022/08/23 10:41:37;;;;;;;9.80;6.47;;;;;;;35.63;35.46;98432.69;6040777;23;20138;-91
2022/08/23 10:44:06;;;;;;;9.43;6.10;;;;;;;35.69;34.86;98429.72;6040934;23;20550;-92
2022/08/23 10:46:39;;;;;;;8.68;5.78;;;;;;;35.66;34.82;98422.09;6040470;23;20566;-92
2022/08/23 10:49:06;;;;;;;8.00;6.10;;;;;;;35.67;35.37;98425.63;6040517;23;20217;-90
2022/08/23 10:51:37;;;;;;;10.23;6.47;;;;;;;35.53;35.21;98414.34;6039281;23;20613;-91
2022/08/23 10:54:07;;;;;;;9.10;5.70;;;;;;;35.32;35.45;98411.63;6039210;23;20230;-91
2022/08/23 10:56:34;;;;;;;9.77;5.43;;;;;;;35.44;35.86;98421.28;6040273;23;20154;-91
2022/08/23 10:59:21;;;;;;;8.18;5.15;;;;;;;35.22;36.44;98417.81;6039158;23;20161;-92
2022/08/23 11:02:18;;;;;;;7.90;5.38;;;;;;;35.11;36.58;98422.31;6040200;23;20178;-91
2022/08/23 11:05:05;;;;;;;7.47;4.82;;;;;;;34.68;36.41;98426.91;6039027;23;20162;-91
2022/08/23 11:07:39;;;;;;;8.43;5.55;;;;;;;34.53;36.71;98424.78;6040849;23;20577;-91
2022/08/23 11:10:24;;;;;;;8.10;4.38;;;;;;;33.97;37.64;98420.38;6040581;23;20138;-91
2022/08/23 11:12:58;;;;;;;14.77;5.53;;;;;;;34.38;36.86;98417.22;6040553;23;20138;-91
2022/08/23 11:15:30;;;;;;;9.00;5.28;;;;;;;34.62;36.13;98417.84;6040596;23;20134;-91
2022/08/23 11:18:01;;;;;;;7.07;4.15;;;;;;;34.73;35.86;98407.91;6038669;23;20508;-91
2022/08/23 11:20:48;;;;;;;7.07;4.63;;;;;;;34.86;36.22;98405.63;6038832;23;20229;-90
2022/08/23 11:23:33;;;;;;;8.75;5.10;;;;;;;34.89;35.04;98417.91;6038783;23;20488;-91
2022/08/23 11:26:00;;;;;;;9.82;4.32;;;;;;;34.85;36.12;98403.19;6039616;23;20474;-91
2022/08/23 11:28:25;;;;;;;6.88;4.90;;;;;;;34.44;35.88;98401.78;6038897;23;20162;-90
2022/08/23 11:31:06;;;;;;;7.63;4.80;;;;;;;34.37;36.34;98401.97;6039936;23;20150;-90
2022/08/23 11:33:52;;;;;;;8.15;5.15;;;;;;;34.94;36.43;98402.47;6040206;23;20451;-91
2022/08/23 11:36:24;;;;;;;8.88;5.22;;;;;;;35.20;35.76;98403.59;6038857;23;20485;-91
2022/08/23 11:38:49;;;;;;;8.50;4.90;;;;;;;35.42;35.57;98390.75;6040373;23;20149;-91
2022/08/23 11:41:18;;;;;;;7.18;4.65;;;;;;;35.65;35.58;98382.25;6039855;23;20212;-91
2022/08/23 11:44:04;;;;;;;8.35;4.57;;;;;;;35.82;34.73;98386.78;6040767;23;20181;-91
2022/08/23 11:46:36;;;;;;;7.53;5.07;;;;;;;36.06;34.94;98390.81;6036885;23;20489;-91
2022/08/23 11:49:34;;;;;;;6.85;4.50;;;;;;;36.27;34.69;98381.63;6038721;23;20161;-91
2022/08/23 11:52:27;;;;;;;8.52;4.85;;;;;;;36.34;34.66;98382.25;6040213;23;20149;-91
2022/08/23 11:55:01;;;;;;;8.05;5.47;;;;;;;36.31;34.33;98375.41;6040317;23;20192;-92
2022/08/23 11:57:52;;;;;;;7.88;4.97;;;;;;;36.34;34.47;98376.78;6038696;23;20617;-90